Time;durP1;ratioP1;P1;durP2;ratioP2;P2;SDS_P1;SDS_P2;PMS_P1;PMS_P2;Temp;Humidity;BMP_temperature;BMP_pressure;BME280_temperature;BME280_humidity;BME280_pressure;Samples;Min_cycle;Max_cycle;Signal;HPM_P1;HPM_P2
2021/07/14 00:01:04;;;;;;;23.63;18.20;;;20.70;86.00;;;;;;5036174;28;20200;-85
2021/07/14 00:03:30;;;;;;;18.98;17.27;;;20.70;86.00;;;;;;5054031;28;20179;-85
2021/07/14 00:05:56;;;;;;;21.70;19.60;;;20.70;86.30;;;;;;5036109;28;20172;-85
2021/07/14 00:08:22;;;;;;;22.33;18.80;;;20.70;86.50;;;;;;5036174;28;20310;-86
2021/07/14 00:10:47;;;;;;;21.63;18.88;;;20.70;86.60;;;;;;5036063;28;20548;-86
2021/07/14 00:24:00;;;;;;;23.58;21.38;;;20.70;87.90;;;;;;5054103;28;20694;-85
2021/07/14 00:26:25;;;;;;;24.95;22.35;;;20.70;88.20;;;;;;5035896;28;20225;-85
2021/07/14 00:28:51;;;;;;;25.08;22.50;;;20.60;88.60;;;;;;5053586;28;20176;-85
2021/07/14 00:31:18;;;;;;;24.35;21.75;;;20.50;88.80;;;;;;5035822;28;20219;-86
2021/07/14 00:33:45;;;;;;;25.35;21.63;;;20.50;88.90;;;;;;5054017;28;20192;-85
2021/07/14 00:36:11;;;;;;;23.63;21.45;;;20.50;89.00;;;;;;5035583;28;20184;-86
2021/07/14 00:38:38;;;;;;;23.60;21.23;;;20.50;89.20;;;;;;5035636;28;20184;-85
2021/07/14 00:41:05;;;;;;;24.80;22.38;;;20.50;89.00;;;;;;5035515;28;20195;-85
2021/07/14 00:43:31;;;;;;;24.88;22.38;;;20.50;89.00;;;;;;5035424;28;20218;-85
2021/07/14 00:46:20;;;;;;;27.17;21.95;;;20.50;89.00;;;;;;5053674;28;20239;-85
2021/07/14 00:48:48;;;;;;;26.02;23.45;;;20.50;89.20;;;;;;5035531;28;20521;-85
2021/07/14 00:51:14;;;;;;;25.35;22.42;;;20.50;89.30;;;;;;5035423;28;20230;-85
2021/07/14 00:53:41;;;;;;;25.10;22.35;;;20.40;89.40;;;;;;5035363;28;20287;-86
2021/07/14 00:56:07;;;;;;;25.27;22.45;;;20.40;89.40;;;;;;5053365;28;20178;-86
2021/07/14 00:58:33;;;;;;;28.40;22.98;;;20.40;89.60;;;;;;5035515;28;20176;-86
2021/07/14 01:01:00;;;;;;;26.65;23.85;;;20.30;89.60;;;;;;5053090;28;20191;-86
2021/07/14 01:03:29;;;;;;;25.98;22.48;;;20.30;89.70;;;;;;5035195;28;20223;-86
2021/07/14 01:05:58;;;;;;;31.40;23.50;;;20.30;89.80;;;;;;5035315;28;20551;-85
2021/07/14 01:08:42;;;;;;;31.00;24.45;;;20.20;89.90;;;;;;5035248;28;20632;-86
2021/07/14 01:11:12;;;;;;;24.58;22.20;;;20.30;89.90;;;;;;5035259;28;20176;-85
2021/07/14 01:13:49;;;;;;;29.70;23.08;;;20.30;89.90;;;;;;5035158;28;20179;-85
2021/07/14 01:16:19;;;;;;;26.45;22.67;;;20.30;89.90;;;;;;5035175;28;20164;-85
2021/07/14 01:19:00;;;;;;;23.88;21.40;;;20.30;89.80;;;;;;5035260;28;20640;-85
2021/07/14 01:21:30;;;;;;;23.00;20.65;;;20.30;89.80;;;;;;5053064;28;20191;-85
2021/07/14 01:24:10;;;;;;;24.50;20.15;;;20.40;89.70;;;;;;5035342;28;20192;-86
2021/07/14 01:27:01;;;;;;;24.58;19.60;;;20.40;89.60;;;;;;5035079;28;20156;-85
2021/07/14 01:29:28;;;;;;;25.55;20.88;;;20.40;89.30;;;;;;5038250;28;20198;-86
2021/07/14 01:31:54;;;;;;;22.00;19.45;;;20.50;89.20;;;;;;5039149;28;20184;-86
2021/07/14 01:34:22;;;;;;;25.02;21.17;;;20.50;88.90;;;;;;5056871;28;20188;-86
2021/07/14 01:36:51;;;;;;;24.83;19.85;;;20.50;88.70;;;;;;5056853;28;20656;-86
2021/07/14 01:39:19;;;;;;;30.95;21.15;;;20.50;88.60;;;;;;5038973;28;20180;-85
2021/07/14 01:41:48;;;;;;;25.85;22.08;;;20.50;88.30;;;;;;5038749;28;20199;-85
2021/07/14 01:44:17;;;;;;;25.42;22.02;;;20.40;88.60;;;;;;5038601;28;20573;-85
2021/07/14 01:46:44;;;;;;;28.60;22.73;;;20.30;89.00;;;;;;5056643;28;20170;-85
2021/07/14 01:49:14;;;;;;;25.58;22.00;;;20.30;89.10;;;;;;5038713;28;20266;-85
2021/07/14 01:51:47;;;;;;;25.85;21.95;;;20.30;89.20;;;;;;5038705;28;20195;-85
2021/07/14 01:54:14;;;;;;;30.15;22.42;;;20.20;89.20;;;;;;5038689;28;20196;-85
2021/07/14 01:56:40;;;;;;;30.80;21.88;;;20.20;89.30;;;;;;5056508;28;20171;-85
2021/07/14 01:59:08;;;;;;;24.17;20.52;;;20.20;89.40;;;;;;5038503;28;20555;-85
2021/07/14 02:01:37;;;;;;;28.55;22.10;;;20.20;89.50;;;;;;5056304;28;20278;-85
2021/07/14 02:06:50;;;;;;;27.00;20.75;;;20.10;89.60;;;;;;5056701;28;20670;-85
2021/07/14 02:09:16;;;;;;;27.08;20.63;;;20.00;89.60;;;;;;5038387;28;20183;-86
2021/07/14 02:11:46;;;;;;;24.20;20.20;;;20.10;89.50;;;;;;5038312;28;20180;-86
2021/07/14 02:14:24;;;;;;;27.85;19.95;;;20.10;89.20;;;;;;5038198;28;20200;-86
2021/07/14 02:16:50;;;;;;;28.25;21.85;;;20.10;89.00;;;;;;5038272;28;20172;-86
2021/07/14 02:19:19;;;;;;;32.97;20.38;;;20.20;88.80;;;;;;5056192;28;20245;-86
2021/07/14 02:21:45;;;;;;;25.02;20.13;;;20.10;89.00;;;;;;5055964;28;20196;-85
2021/07/14 02:24:12;;;;;;;27.05;20.50;;;20.10;89.10;;;;;;5055929;28;20215;-85
2021/07/14 02:26:39;;;;;;;27.08;20.27;;;20.20;89.10;;;;;;5055960;28;20173;-85
2021/07/14 02:29:05;;;;;;;25.88;20.80;;;20.10;88.90;;;;;;5037957;28;20180;-85
2021/07/14 02:31:31;;;;;;;25.25;19.73;;;20.10;89.00;;;;;;5055848;28;20596;-86
2021/07/14 02:33:58;;;;;;;31.05;20.70;;;20.00;89.10;;;;;;5037904;28;20668;-86
2021/07/14 02:36:26;;;;;;;30.13;20.33;;;20.00;89.30;;;;;;5056053;28;20222;-86
2021/07/14 02:38:57;;;;;;;34.40;21.23;;;19.90;89.50;;;;;;5055653;28;20174;-86
2021/07/14 02:41:29;;;;;;;30.83;20.85;;;19.90;89.70;;;;;;5036833;28;20608;-85
2021/07/14 02:43:58;;;;;;;32.38;20.98;;;19.80;89.90;;;;;;5037781;28;20203;-85
2021/07/14 02:46:27;;;;;;;31.88;22.15;;;19.80;90.00;;;;;;5038367;28;20559;-85
2021/07/14 02:48:56;;;;;;;34.95;21.50;;;19.80;90.10;;;;;;5056986;28;20169;-86
2021/07/14 02:51:25;;;;;;;34.95;22.23;;;19.70;90.20;;;;;;5037718;28;20181;-86
2021/07/14 02:53:53;;;;;;;42.50;21.90;;;19.70;90.40;;;;;;5037438;28;20290;-86
2021/07/14 02:56:22;;;;;;;26.85;21.02;;;19.70;90.50;;;;;;5037583;28;20275;-86
2021/07/14 02:58:52;;;;;;;28.33;21.25;;;19.70;90.50;;;;;;5038303;28;20198;-85
2021/07/14 03:01:19;;;;;;;38.85;22.20;;;19.70;90.60;;;;;;5055433;28;20279;-86
2021/07/14 03:03:48;;;;;;;23.70;21.13;;;19.70;90.60;;;;;;5037280;28;20231;-86
2021/07/14 03:06:15;;;;;;;24.52;21.48;;;19.70;90.60;;;;;;5037345;28;20203;-86
2021/07/14 03:08:44;;;;;;;36.47;22.55;;;19.70;90.70;;;;;;5037287;28;20196;-86
2021/07/14 03:11:11;;;;;;;24.50;21.65;;;19.70;90.60;;;;;;5037202;28;20271;-86
2021/07/14 03:13:38;;;;;;;28.60;21.90;;;19.70;90.60;;;;;;5055047;28;20225;-86
2021/07/14 03:16:05;;;;;;;29.70;21.55;;;19.70;90.70;;;;;;5055014;28;20172;-86
2021/07/14 03:18:32;;;;;;;25.00;21.60;;;19.70;90.70;;;;;;5037111;28;20179;-86
2021/07/14 03:21:00;;;;;;;27.95;21.83;;;19.70;90.60;;;;;;5036996;28;20200;-86
2021/07/14 03:23:27;;;;;;;24.27;21.63;;;19.70;90.50;;;;;;5037310;28;20168;-86
2021/07/14 03:25:55;;;;;;;26.95;21.98;;;19.70;90.60;;;;;;5036948;28;20179;-86
2021/07/14 03:28:22;;;;;;;26.92;20.95;;;19.70;90.60;;;;;;5036876;28;20219;-86
2021/07/14 03:30:51;;;;;;;25.95;20.77;;;19.70;90.60;;;;;;5036822;28;20172;-86
2021/07/14 03:33:16;;;;;;;25.98;21.73;;;19.70;90.50;;;;;;5036767;28;20176;-86
2021/07/14 03:35:44;;;;;;;27.15;21.73;;;19.80;90.40;;;;;;5036633;28;20203;-86
2021/07/14 03:38:11;;;;;;;27.48;21.67;;;19.80;90.30;;;;;;5054561;28;20172;-86
2021/07/14 03:40:42;;;;;;;30.95;22.13;;;19.80;90.30;;;;;;5036554;28;20195;-86
2021/07/14 03:43:09;;;;;;;29.98;21.00;;;19.80;90.40;;;;;;5036743;28;20195;-86
2021/07/14 03:45:37;;;;;;;28.33;21.33;;;19.80;90.30;;;;;;5036414;28;20697;-86
2021/07/14 03:48:03;;;;;;;25.45;22.25;;;19.80;90.50;;;;;;5054336;28;20171;-86
2021/07/14 03:50:29;;;;;;;29.08;22.20;;;19.70;90.50;;;;;;5036417;28;20184;-86
2021/07/14 03:52:55;;;;;;;32.67;21.92;;;19.70;90.70;;;;;;5036329;28;20181;-86
2021/07/14 03:55:21;;;;;;;30.33;22.00;;;19.70;90.80;;;;;;5036196;28;20203;-86
2021/07/14 03:57:47;;;;;;;31.90;23.48;;;19.70;90.80;;;;;;5054165;28;20562;-86
2021/07/14 04:00:14;;;;;;;28.80;21.20;;;19.70;90.80;;;;;;5054125;28;20559;-86
2021/07/14 04:02:43;;;;;;;28.88;21.88;;;19.70;90.90;;;;;;5036195;28;20208;-86
2021/07/14 04:05:10;;;;;;;33.00;23.00;;;19.70;90.90;;;;;;5053959;28;20179;-86
2021/07/14 04:07:37;;;;;;;24.67;22.13;;;19.70;90.70;;;;;;5053962;28;20179;-86
2021/07/14 04:10:03;;;;;;;26.30;21.55;;;19.70;90.60;;;;;;5054252;28;20164;-86
2021/07/14 04:12:29;;;;;;;28.63;22.20;;;19.70;90.70;;;;;;5037136;28;20520;-86
2021/07/14 04:14:55;;;;;;;30.92;23.17;;;19.80;90.70;;;;;;5053809;28;20266;-86
2021/07/14 04:17:21;;;;;;;27.30;21.80;;;19.80;90.60;;;;;;5035993;28;20632;-86
2021/07/14 04:19:46;;;;;;;25.45;22.05;;;19.70;90.60;;;;;;5035879;28;20644;-86
2021/07/14 04:22:13;;;;;;;27.38;22.08;;;19.80;90.70;;;;;;5035830;28;20558;-86
2021/07/14 04:24:40;;;;;;;24.30;21.40;;;19.70;90.70;;;;;;5053764;28;20281;-86
2021/07/14 04:27:07;;;;;;;29.23;23.77;;;19.80;90.70;;;;;;5035838;28;20184;-86
2021/07/14 04:29:33;;;;;;;25.98;23.25;;;19.70;90.70;;;;;;5035914;28;20175;-86
2021/07/14 04:31:59;;;;;;;28.48;23.45;;;19.80;90.70;;;;;;5035789;28;20747;-86
2021/07/14 04:34:25;;;;;;;32.47;23.08;;;19.80;90.70;;;;;;5053445;28;20191;-86
2021/07/14 04:36:51;;;;;;;24.52;22.00;;;19.80;90.60;;;;;;5035620;28;20180;-86
2021/07/14 04:39:17;;;;;;;33.88;23.40;;;19.80;90.60;;;;;;5035613;28;20709;-86
2021/07/14 04:41:42;;;;;;;29.25;22.95;;;19.80;90.60;;;;;;5035811;28;20253;-86
2021/07/14 04:44:10;;;;;;;27.05;23.25;;;19.80;90.60;;;;;;5035405;28;20265;-86
2021/07/14 04:46:37;;;;;;;27.92;23.33;;;19.80;90.60;;;;;;5053452;28;20168;-86
2021/07/14 04:49:03;;;;;;;25.08;22.58;;;19.80;90.60;;;;;;5035550;28;20226;-86
2021/07/14 04:51:29;;;;;;;26.30;21.83;;;19.80;90.60;;;;;;5053318;28;20636;-86
2021/07/14 04:53:55;;;;;;;31.95;22.95;;;19.80;90.80;;;;;;5035545;28;20206;-86
2021/07/14 04:56:21;;;;;;;28.65;23.98;;;19.80;91.10;;;;;;5053313;28;20176;-86
2021/07/14 04:58:48;;;;;;;29.15;24.45;;;19.70;91.30;;;;;;5053307;28;20183;-86
2021/07/14 05:01:15;;;;;;;28.75;25.73;;;19.80;91.30;;;;;;5053167;28;20266;-86
2021/07/14 05:03:45;;;;;;;29.02;24.33;;;19.70;91.40;;;;;;5035078;28;20222;-86
2021/07/14 05:06:12;;;;;;;29.20;25.08;;;19.80;91.40;;;;;;5053143;28;20186;-86
2021/07/14 05:08:37;;;;;;;30.90;24.85;;;19.70;91.50;;;;;;5053109;28;20172;-86
2021/07/14 05:11:03;;;;;;;29.23;23.88;;;19.80;91.50;;;;;;5053360;28;20254;-86
2021/07/14 05:13:29;;;;;;;29.70;24.70;;;19.80;91.40;;;;;;5035127;28;20183;-86
2021/07/14 05:15:54;;;;;;;26.90;21.92;;;19.80;91.40;;;;;;5053046;28;20258;-86
2021/07/14 05:18:20;;;;;;;27.88;22.58;;;19.80;91.50;;;;;;5035293;28;20176;-86
2021/07/14 05:20:45;;;;;;;33.63;22.98;;;19.80;91.50;;;;;;5052949;28;20238;-86
2021/07/14 05:23:11;;;;;;;25.30;22.30;;;19.80;91.50;;;;;;5035250;28;20179;-86
2021/07/14 05:25:37;;;;;;;26.58;22.33;;;19.80;91.40;;;;;;5052849;28;20203;-86
2021/07/14 05:28:04;;;;;;;28.65;24.40;;;19.80;91.30;;;;;;5035139;28;20179;-86
2021/07/14 05:30:30;;;;;;;24.63;22.23;;;19.80;91.40;;;;;;5052892;28;20172;-86
2021/07/14 05:32:56;;;;;;;27.30;24.02;;;19.80;91.30;;;;;;5052886;28;20175;-86
2021/07/14 05:35:21;;;;;;;25.30;22.45;;;19.80;91.40;;;;;;5052766;28;20188;-86
2021/07/14 05:37:47;;;;;;;26.38;22.17;;;19.80;91.30;;;;;;5035020;28;20215;-86
2021/07/14 05:40:12;;;;;;;25.95;22.10;;;19.80;91.20;;;;;;5053035;28;20172;-86
2021/07/14 05:42:38;;;;;;;25.45;22.75;;;19.80;91.20;;;;;;5034804;28;20679;-86
2021/07/14 05:45:05;;;;;;;29.35;23.63;;;19.80;91.20;;;;;;5052894;28;20564;-86
2021/07/14 05:47:31;;;;;;;24.95;22.30;;;19.80;91.30;;;;;;5052655;28;20168;-86
2021/07/14 05:49:56;;;;;;;25.25;22.55;;;19.80;91.40;;;;;;5053033;28;20637;-86
2021/07/14 05:52:23;;;;;;;30.52;23.00;;;19.80;91.40;;;;;;5052932;28;20259;-86
2021/07/14 05:54:49;;;;;;;25.58;23.05;;;19.80;91.20;;;;;;5052616;28;20692;-86
2021/07/14 05:57:14;;;;;;;33.42;23.45;;;19.90;91.20;;;;;;5053563;28;20211;-85
2021/07/14 05:59:40;;;;;;;27.17;23.60;;;19.90;91.20;;;;;;5052887;28;20643;-86
2021/07/14 06:02:06;;;;;;;29.58;24.27;;;19.90;91.40;;;;;;5052569;28;20257;-85
2021/07/14 06:04:31;;;;;;;26.15;23.50;;;20.00;91.30;;;;;;5034677;28;20650;-85
2021/07/14 06:06:59;;;;;;;29.65;25.20;;;20.00;91.40;;;;;;5034816;28;20683;-86
2021/07/14 06:09:25;;;;;;;27.90;23.55;;;20.00;91.50;;;;;;5034889;28;20279;-85
2021/07/14 06:11:51;;;;;;;28.15;25.15;;;20.10;91.30;;;;;;5053589;28;20179;-85
2021/07/14 06:14:16;;;;;;;26.83;23.92;;;20.00;91.30;;;;;;5052937;28;20282;-85
2021/07/14 06:16:42;;;;;;;30.08;24.63;;;20.10;91.30;;;;;;5055965;28;20221;-85
2021/07/14 06:19:07;;;;;;;30.63;24.73;;;20.20;91.60;;;;;;5038879;28;20640;-85
2021/07/14 06:21:33;;;;;;;26.90;24.00;;;20.20;91.70;;;;;;5038333;28;20199;-85
2021/07/14 06:23:59;;;;;;;27.52;24.52;;;20.20;91.50;;;;;;5057240;28;20299;-84
2021/07/14 06:26:24;;;;;;;27.02;23.90;;;20.20;91.20;;;;;;5055979;28;20239;-84
2021/07/14 06:28:50;;;;;;;27.10;23.73;;;20.20;91.20;;;;;;5038089;28;20557;-84
2021/07/14 06:31:17;;;;;;;30.55;25.67;;;20.20;91.30;;;;;;5038654;28;20251;-84
2021/07/14 06:33:43;;;;;;;26.33;23.52;;;20.30;91.40;;;;;;5039953;28;20203;-85
2021/07/14 06:36:09;;;;;;;31.27;23.77;;;20.30;91.30;;;;;;5038422;28;20582;-84
2021/07/14 06:38:35;;;;;;;31.42;24.17;;;20.30;91.20;;;;;;5039065;28;20245;-84
2021/07/14 06:41:01;;;;;;;28.88;23.67;;;20.40;90.90;;;;;;5055818;28;20192;-85
2021/07/14 06:43:41;;;;;;;28.77;23.98;;;20.50;91.10;;;;;;5055405;28;20171;-85
2021/07/14 06:46:11;;;;;;;26.52;23.52;;;20.50;90.90;;;;;;5037775;28;20526;-85
2021/07/14 06:48:38;;;;;;;29.42;23.67;;;20.50;90.80;;;;;;5037716;28;20179;-85
2021/07/14 06:51:04;;;;;;;27.90;25.02;;;20.50;91.10;;;;;;5055708;28;20527;-85
2021/07/14 06:53:29;;;;;;;27.67;24.80;;;20.50;91.10;;;;;;5037495;28;20271;-85
2021/07/14 06:55:58;;;;;;;27.67;24.25;;;20.60;91.10;;;;;;5055308;28;20670;-85
2021/07/14 06:58:24;;;;;;;28.65;25.48;;;20.60;90.90;;;;;;5037734;28;20176;-85
2021/07/14 07:00:50;;;;;;;27.05;24.08;;;20.60;90.90;;;;;;5055256;28;20683;-85
2021/07/14 07:03:16;;;;;;;32.90;24.83;;;20.70;91.10;;;;;;5055267;28;20183;-85
2021/07/14 07:05:41;;;;;;;31.38;24.77;;;20.70;91.10;;;;;;5055704;28;20270;-85
2021/07/14 07:08:07;;;;;;;30.02;26.75;;;20.70;91.10;;;;;;5037269;28;20246;-85
2021/07/14 07:10:32;;;;;;;28.00;24.92;;;20.70;91.00;;;;;;5037291;28;20168;-85
2021/07/14 07:12:58;;;;;;;28.30;25.33;;;20.70;90.80;;;;;;5037260;28;20180;-85
2021/07/14 07:15:24;;;;;;;28.05;25.05;;;20.70;91.00;;;;;;5037361;28;20200;-85
2021/07/14 07:17:49;;;;;;;34.72;26.13;;;20.70;90.90;;;;;;5037068;28;20176;-85
2021/07/14 07:20:16;;;;;;;32.03;26.50;;;20.70;91.20;;;;;;5037136;28;20176;-85
2021/07/14 07:22:45;;;;;;;36.25;26.00;;;20.70;91.30;;;;;;5054773;28;20683;-85
2021/07/14 07:25:13;;;;;;;32.75;27.15;;;20.70;91.40;;;;;;5036967;28;20778;-85
2021/07/14 07:27:40;;;;;;;34.75;26.63;;;20.60;91.30;;;;;;5054351;28;20230;-85
2021/07/14 07:30:08;;;;;;;32.30;26.80;;;20.70;91.40;;;;;;5036766;28;20180;-85
2021/07/14 07:32:34;;;;;;;30.15;26.90;;;20.70;91.50;;;;;;5036760;28;20723;-85
2021/07/14 07:35:00;;;;;;;28.67;25.70;;;20.70;91.70;;;;;;5036706;28;20290;-85
2021/07/14 07:37:26;;;;;;;33.13;28.10;;;20.70;91.80;;;;;;5036775;28;20222;-85
2021/07/14 07:39:51;;;;;;;32.55;28.38;;;20.70;91.90;;;;;;5054506;28;20698;-85
2021/07/14 07:42:18;;;;;;;34.85;28.30;;;20.60;91.80;;;;;;5036751;28;20585;-85
2021/07/14 07:44:43;;;;;;;37.35;28.38;;;20.70;92.10;;;;;;5054278;28;20743;-86
2021/07/14 07:47:09;;;;;;;30.02;26.92;;;20.70;92.10;;;;;;5054426;28;20247;-85
2021/07/14 07:49:35;;;;;;;30.02;26.58;;;20.70;91.90;;;;;;5036444;28;20167;-86
2021/07/14 07:52:03;;;;;;;30.77;27.35;;;20.70;91.70;;;;;;5054329;28;20255;-85
2021/07/14 07:54:29;;;;;;;35.10;28.88;;;20.70;91.50;;;;;;5054075;28;20196;-86
2021/07/14 07:56:55;;;;;;;37.85;28.25;;;20.70;91.40;;;;;;5036393;28;20603;-86
2021/07/14 07:59:21;;;;;;;36.60;29.10;;;20.70;91.50;;;;;;5036306;28;20206;-86
2021/07/14 08:01:47;;;;;;;36.65;28.33;;;20.70;91.60;;;;;;5036275;28;20675;-86
2021/07/14 08:04:12;;;;;;;38.40;31.15;;;20.80;91.50;;;;;;5054148;28;20197;-86
2021/07/14 08:06:38;;;;;;;38.03;32.22;;;20.70;91.60;;;;;;5036432;28;20180;-86
2021/07/14 08:09:05;;;;;;;41.35;34.80;;;20.80;91.70;;;;;;5036178;28;20179;-85
2021/07/14 08:11:31;;;;;;;38.53;32.63;;;20.90;91.80;;;;;;5054053;28;20172;-85
2021/07/14 08:13:59;;;;;;;41.75;35.28;;;20.90;91.90;;;;;;5054116;28;20199;-85
2021/07/14 08:16:26;;;;;;;39.72;34.28;;;21.00;92.00;;;;;;5054848;28;20169;-85
2021/07/14 08:18:52;;;;;;;47.75;35.30;;;21.10;92.20;;;;;;5037346;28;20226;-85
2021/07/14 08:21:18;;;;;;;42.35;36.45;;;21.20;92.20;;;;;;5054626;28;20198;-85
2021/07/14 08:23:45;;;;;;;39.78;34.22;;;21.20;92.10;;;;;;5036061;28;20217;-85
2021/07/14 08:26:12;;;;;;;50.38;34.25;;;21.20;92.00;;;;;;5054070;28;20172;-86
2021/07/14 08:28:42;;;;;;;37.45;33.20;;;21.20;92.00;;;;;;5054197;28;20168;-85
2021/07/14 08:31:08;;;;;;;37.67;33.38;;;21.20;91.80;;;;;;5054535;28;20195;-85
2021/07/14 08:33:34;;;;;;;44.83;34.35;;;21.20;91.60;;;;;;5035791;28;20199;-85
2021/07/14 08:36:00;;;;;;;44.38;32.65;;;21.10;91.60;;;;;;5054303;28;20176;-85
2021/07/14 08:38:26;;;;;;;39.97;33.58;;;21.10;91.70;;;;;;5053311;28;20555;-85
2021/07/14 08:40:52;;;;;;;40.97;35.60;;;21.10;91.90;;;;;;5053353;28;20732;-85
2021/07/14 08:43:20;;;;;;;39.58;35.17;;;21.10;92.00;;;;;;5053549;28;20183;-85
2021/07/14 08:45:47;;;;;;;40.53;35.05;;;21.10;92.20;;;;;;5021491;23;20221;-84
2021/07/14 08:48:14;;;;;;;44.92;36.53;;;21.10;92.20;;;;;;4991306;28;20177;-84
2021/07/14 08:50:44;;;;;;;38.25;34.05;;;21.20;92.30;;;;;;4989987;28;20189;-85
2021/07/14 08:53:16;;;;;;;38.00;33.88;;;21.20;92.30;;;;;;5006308;28;20175;-84
2021/07/14 08:55:43;;;;;;;42.13;34.95;;;21.30;92.20;;;;;;5006302;28;20194;-85
2021/07/14 08:58:14;;;;;;;40.17;31.83;;;21.30;92.20;;;;;;4991206;28;20174;-85
2021/07/14 09:00:40;;;;;;;39.03;31.83;;;21.40;92.10;;;;;;4991395;28;20188;-85
2021/07/14 09:03:06;;;;;;;41.05;31.20;;;21.40;92.10;;;;;;4991255;28;20178;-84
2021/07/14 09:05:32;;;;;;;32.15;28.25;;;21.50;92.00;;;;;;4991303;28;20255;-84
2021/07/14 09:07:58;;;;;;;30.08;26.75;;;21.40;91.50;;;;;;4991202;28;20654;-84
2021/07/14 09:10:23;;;;;;;32.92;29.38;;;21.40;91.50;;;;;;4991254;28;20182;-84
2021/07/14 09:12:53;;;;;;;30.65;27.35;;;21.40;91.60;;;;;;4989783;28;20175;-84
2021/07/14 09:15:21;;;;;;;29.52;26.45;;;21.40;91.60;;;;;;4989740;28;20255;-84
2021/07/14 09:18:05;;;;;;;31.27;26.77;;;21.50;91.50;;;;;;4991223;28;20200;-85
2021/07/14 09:20:32;;;;;;;36.03;30.63;;;21.50;91.60;;;;;;5005947;28;20163;-84
2021/07/14 09:23:10;;;;;;;32.20;28.80;;;21.70;92.10;;;;;;4989959;28;20190;-85
2021/07/14 09:25:44;;;;;;;28.55;25.60;;;22.10;92.50;;;;;;4991201;28;20607;-84
2021/07/14 09:28:11;;;;;;;26.40;23.75;;;22.20;90.90;;;;;;4991146;28;20170;-84
2021/07/14 09:30:38;;;;;;;30.17;23.88;;;22.40;90.50;;;;;;4990972;28;20220;-84
2021/07/14 09:33:06;;;;;;;26.48;23.65;;;22.40;89.90;;;;;;4990885;28;20223;-85
2021/07/14 09:35:48;;;;;;;26.48;23.30;;;22.50;89.80;;;;;;4989441;28;20198;-84
2021/07/14 09:38:35;;;;;;;25.35;22.73;;;22.60;90.00;;;;;;4991158;28;20598;-84
2021/07/14 09:41:06;;;;;;;27.50;23.40;;;22.70;89.90;;;;;;4990641;28;20210;-85
2021/07/14 09:43:37;;;;;;;29.42;23.17;;;22.80;89.90;;;;;;4990768;28;20665;-84
2021/07/14 09:46:09;;;;;;;24.30;20.88;;;23.00;89.70;;;;;;4989385;28;20228;-85
2021/07/14 09:48:38;;;;;;;23.90;21.48;;;23.20;89.00;;;;;;4989370;28;20166;-84
2021/07/14 09:51:22;;;;;;;21.65;19.45;;;23.70;88.90;;;;;;4994002;28;20257;-84
2021/07/14 09:53:50;;;;;;;19.63;17.55;;;23.90;86.60;;;;;;4992906;28;20264;-84
2021/07/14 09:56:20;;;;;;;21.58;19.05;;;24.10;85.90;;;;;;4992806;28;20263;-84
2021/07/14 09:58:46;;;;;;;19.10;17.23;;;24.40;86.10;;;;;;4994290;28;20526;-84
2021/07/14 10:01:15;;;;;;;19.33;16.42;;;24.40;84.30;;;;;;4994083;28;20206;-84
2021/07/14 10:03:51;;;;;;;19.88;17.85;;;24.50;84.40;;;;;;4992687;28;20223;-84
2021/07/14 10:06:19;;;;;;;17.33;15.30;;;24.80;84.50;;;;;;4994400;28;20193;-85
2021/07/14 10:08:46;;;;;;;15.40;13.65;;;25.10;83.10;;;;;;4992546;28;20615;-84
2021/07/14 10:11:26;;;;;;;15.68;14.27;;;25.20;81.30;;;;;;4993592;28;20277;-84
2021/07/14 10:14:00;;;;;;;16.10;14.18;;;25.30;82.20;;;;;;4993579;28;20688;-84
2021/07/14 10:16:33;;;;;;;15.95;14.35;;;25.40;79.40;;;;;;4994151;28;20185;-84
2021/07/14 10:19:09;;;;;;;20.13;14.27;;;25.40;79.40;;;;;;4993614;28;20249;-84
2021/07/14 10:21:49;;;;;;;21.42;18.10;;;25.20;81.60;;;;;;4993649;28;20200;-84
2021/07/14 10:24:17;;;;;;;22.45;19.75;;;25.30;82.20;;;;;;4993855;28;20247;-84
2021/07/14 10:26:47;;;;;;;20.63;18.52;;;25.00;82.50;;;;;;4992355;28;20178;-84
2021/07/14 10:29:13;;;;;;;21.48;19.40;;;25.00;83.70;;;;;;4993805;28;20588;-84
2021/07/14 10:31:39;;;;;;;21.75;19.60;;;25.10;82.80;;;;;;4993461;28;20642;-84
2021/07/14 10:34:07;;;;;;;25.90;20.52;;;25.10;84.40;;;;;;4993430;28;20206;-85
2021/07/14 10:36:36;;;;;;;21.80;19.50;;;25.00;83.70;;;;;;4992220;28;20528;-84
2021/07/14 10:39:14;;;;;;;22.67;20.35;;;25.20;84.30;;;;;;4992247;28;20221;-85
2021/07/14 10:41:41;;;;;;;22.73;20.50;;;24.90;83.20;;;;;;4993140;28;20202;-85
2021/07/14 10:44:07;;;;;;;24.90;22.30;;;24.70;84.40;;;;;;4993155;28;20171;-84
2021/07/14 10:46:35;;;;;;;25.42;22.48;;;24.30;84.80;;;;;;4992012;28;20193;-84
2021/07/14 10:49:04;;;;;;;25.67;23.02;;;24.30;84.70;;;;;;4993307;28;20200;-84
2021/07/14 10:51:31;;;;;;;26.33;22.38;;;24.30;84.80;;;;;;4992020;28;20249;-84
2021/07/14 10:54:02;;;;;;;25.80;22.23;;;24.20;84.80;;;;;;4991789;28;20189;-84
2021/07/14 10:56:29;;;;;;;27.13;24.35;;;24.00;85.20;;;;;;4993041;28;20165;-84
2021/07/14 10:58:55;;;;;;;27.42;24.67;;;23.70;85.70;;;;;;4991784;28;20276;-85
2021/07/14 11:01:40;;;;;;;28.60;24.13;;;23.60;86.60;;;;;;4990795;28;20288;-85
2021/07/14 11:04:33;;;;;;;30.42;22.75;;;23.70;86.80;;;;;;4992762;28;20194;-85
2021/07/14 11:07:05;;;;;;;26.38;23.17;;;23.80;86.50;;;;;;4991386;28;20189;-85
2021/07/14 11:09:42;;;;;;;28.45;21.70;;;23.80;85.90;;;;;;4991647;28;20182;-85
2021/07/14 11:12:11;;;;;;;26.42;22.98;;;24.00;85.90;;;;;;4991601;28;20181;-85
2021/07/14 11:14:48;;;;;;;25.30;22.08;;;24.10;85.20;;;;;;4992966;28;20214;-85
2021/07/14 11:17:15;;;;;;;25.38;22.35;;;24.10;85.10;;;;;;4992954;28;20154;-85
2021/07/14 11:19:50;;;;;;;23.92;21.58;;;24.00;84.90;;;;;;4992697;28;20186;-86
2021/07/14 11:22:17;;;;;;;22.92;20.75;;;24.20;85.20;;;;;;4992521;28;20233;-85
2021/07/14 11:24:42;;;;;;;22.23;19.85;;;24.40;84.40;;;;;;4992455;28;20197;-85
2021/07/14 11:27:26;;;;;;;21.40;19.40;;;24.60;84.60;;;;;;4991345;28;20178;-85
2021/07/14 11:30:04;;;;;;;19.67;17.88;;;24.60;83.20;;;;;;4992412;28;20516;-85
2021/07/14 11:35:06;;;;;;;21.95;17.40;;;25.20;84.20;;;;;;4992388;28;20301;-85
2021/07/14 11:37:32;;;;;;;17.42;15.50;;;25.30;81.80;;;;;;4992418;28;20665;-83
2021/07/14 11:40:20;;;;;;;17.73;13.70;;;25.70;80.60;;;;;;4991370;28;20201;-83
2021/07/14 11:42:55;;;;;;;13.55;12.25;;;26.30;81.90;;;;;;4992630;28;20763;-83
2021/07/14 11:45:43;;;;;;;14.07;11.43;;;26.60;76.90;;;;;;4992348;28;20681;-83
2021/07/14 11:48:10;;;;;;;16.25;10.13;;;26.60;74.00;;;;;;4992332;28;20706;-83
2021/07/14 11:50:59;;;;;;;12.60;10.07;;;26.50;72.60;;;;;;4992615;28;20170;-83
2021/07/14 11:53:30;;;;;;;14.32;10.02;;;26.50;71.10;;;;;;4992442;28;20236;-84
2021/07/14 11:56:11;;;;;;;13.60;10.15;;;26.80;71.80;;;;;;4991000;28;20193;-83
2021/07/14 11:58:43;;;;;;;12.45;10.15;;;27.30;70.60;;;;;;4991108;28;20173;-83
2021/07/14 12:01:31;;;;;;;12.80;10.32;;;27.20;72.00;;;;;;4990863;28;20215;-83
2021/07/14 12:04:02;;;;;;;11.13;9.52;;;26.90;69.90;;;;;;4993641;28;20190;-84
2021/07/14 12:06:37;;;;;;;13.05;10.52;;;26.70;71.50;;;;;;4990872;28;20174;-83
2021/07/14 12:09:03;;;;;;;11.63;10.43;;;26.60;71.30;;;;;;4990937;28;20675;-83
2021/07/14 12:11:29;;;;;;;15.00;11.35;;;26.70;72.50;;;;;;4992076;28;20658;-83
2021/07/14 12:13:56;;;;;;;18.17;11.15;;;26.60;73.20;;;;;;4991984;28;20181;-84
2021/07/14 12:16:28;;;;;;;12.05;10.02;;;26.70;73.10;;;;;;4992432;28;20197;-84
2021/07/14 12:18:56;;;;;;;16.70;10.15;;;26.90;70.40;;;;;;4990463;28;20235;-84
2021/07/14 12:21:39;;;;;;;14.13;10.57;;;26.80;70.80;;;;;;4992182;28;20194;-84
2021/07/14 12:24:06;;;;;;;11.75;10.10;;;26.60;72.20;;;;;;4991661;28;20185;-84
2021/07/14 12:26:31;;;;;;;17.85;10.38;;;26.60;73.20;;;;;;4991787;28;20177;-84
2021/07/14 12:28:57;;;;;;;12.32;10.68;;;26.80;73.30;;;;;;4991772;28;20179;-84
2021/07/14 12:31:24;;;;;;;17.10;10.45;;;27.20;73.70;;;;;;4992304;28;20269;-84
2021/07/14 12:33:56;;;;;;;12.45;9.73;;;27.50;71.10;;;;;;4992014;28;20189;-84
2021/07/14 12:36:22;;;;;;;10.38;9.13;;;27.90;71.60;;;;;;5006725;28;20182;-83
2021/07/14 12:38:55;;;;;;;12.13;9.48;;;27.80;70.20;;;;;;4991546;28;20213;-83
2021/07/14 12:41:25;;;;;;;8.88;7.97;;;28.00;68.60;;;;;;4991675;28;20190;-84
2021/07/14 12:44:09;;;;;;;13.63;9.75;;;28.10;67.70;;;;;;4991402;28;20178;-83
2021/07/14 12:46:35;;;;;;;13.00;8.50;;;28.20;67.70;;;;;;4990136;28;20170;-85
2021/07/14 12:49:17;;;;;;;12.15;8.75;;;27.70;67.90;;;;;;4991720;28;20223;-83
2021/07/14 12:52:04;;;;;;;9.20;8.23;;;27.60;67.70;;;;;;4992715;28;20166;-84